createdAt,value
2022-10-20T00:01:12.956Z,3.10
2022-10-20T00:03:40.878Z,3.27
2022-10-20T00:06:10.597Z,3.50
2022-10-20T00:08:38.954Z,3.23
2022-10-20T00:11:07.088Z,2.97
2022-10-20T00:13:36.388Z,3.70
2022-10-20T00:16:04.286Z,3.67
2022-10-20T00:18:32.377Z,3.43
2022-10-20T00:21:00.053Z,3.63
2022-10-20T00:23:27.786Z,3.83
2022-10-20T00:26:03.268Z,3.80
2022-10-20T00:28:30.916Z,3.37
2022-10-20T00:30:59.934Z,3.33
2022-10-20T00:33:28.147Z,3.30
2022-10-20T00:35:55.849Z,3.43
2022-10-20T00:38:23.545Z,3.57
2022-10-20T00:40:51.263Z,3.47
2022-10-20T00:43:19.357Z,3.80
2022-10-20T00:45:52.614Z,3.43
2022-10-20T00:48:25.431Z,3.80
2022-10-20T00:50:55.933Z,3.73
2022-10-20T00:53:25.443Z,3.63
2022-10-20T00:55:56.835Z,3.77
2022-10-20T00:58:25.160Z,3.60
2022-10-20T01:00:57.561Z,4.07
2022-10-20T01:03:31.680Z,3.90
2022-10-20T01:05:59.356Z,4.33
2022-10-20T01:08:27.133Z,3.90
2022-10-20T01:11:04.497Z,4.17
2022-10-20T01:13:42.261Z,4.30
2022-10-20T01:16:19.247Z,4.30
2022-10-20T01:18:57.063Z,4.50
2022-10-20T01:21:57.182Z,4.10
2022-10-20T01:24:39.442Z,4.50
2022-10-20T01:27:35.268Z,4.80
2022-10-20T01:30:16.101Z,4.40
2022-10-20T01:33:10.079Z,4.00
2022-10-20T01:35:51.695Z,3.97
2022-10-20T01:38:27.779Z,4.57
2022-10-20T01:41:02.068Z,3.80
2022-10-20T01:43:35.127Z,4.40
2022-10-20T01:46:04.531Z,4.50
2022-10-20T01:48:35.445Z,4.10
2022-10-20T01:51:04.810Z,4.43
2022-10-20T01:53:32.658Z,3.50
2022-10-20T01:56:02.018Z,4.20
2022-10-20T01:58:56.109Z,4.20
2022-10-20T02:01:38.552Z,4.17
2022-10-20T02:04:08.995Z,4.00
2022-10-20T02:06:44.027Z,4.27
2022-10-20T02:09:17.771Z,4.83
2022-10-20T02:11:52.767Z,4.67
2022-10-20T02:14:23.724Z,4.30
2022-10-20T02:16:56.637Z,4.50
2022-10-20T02:19:27.601Z,5.07
2022-10-20T02:21:57.663Z,5.17
2022-10-20T02:24:29.902Z,5.00
2022-10-20T02:27:01.316Z,5.10
2022-10-20T02:29:36.659Z,5.17
2022-10-20T02:32:04.428Z,4.80
2022-10-20T02:34:32.090Z,5.27
2022-10-20T02:37:00.229Z,5.77
2022-10-20T02:39:28.320Z,5.40
2022-10-20T02:41:56.009Z,4.97
2022-10-20T02:44:23.938Z,5.37
2022-10-20T02:46:52.963Z,4.87
2022-10-20T02:49:21.512Z,4.80
2022-10-20T02:51:49.242Z,4.97
2022-10-20T02:54:16.959Z,4.60
2022-10-20T02:56:44.866Z,4.87
2022-10-20T02:59:14.882Z,5.27
2022-10-20T03:01:42.755Z,4.80
2022-10-20T03:04:12.131Z,4.87
2022-10-20T03:06:40.223Z,5.00
2022-10-20T03:09:08.096Z,4.70
2022-10-20T03:11:35.843Z,4.87
2022-10-20T03:14:03.675Z,5.23
2022-10-20T03:16:31.334Z,5.03
2022-10-20T03:19:03.351Z,5.00
2022-10-20T03:21:36.358Z,4.83
2022-10-20T03:24:04.271Z,5.20
2022-10-20T03:26:32.107Z,5.07
2022-10-20T03:28:59.854Z,5.10
2022-10-20T03:31:27.699Z,5.20
2022-10-20T03:33:55.381Z,5.27
2022-10-20T03:36:23.047Z,5.10
2022-10-20T03:38:52.123Z,5.13
2022-10-20T03:41:19.958Z,5.67
2022-10-20T03:43:47.652Z,5.60
2022-10-20T03:46:15.409Z,5.60
2022-10-20T03:48:43.506Z,5.37
2022-10-20T03:51:14.213Z,5.20
2022-10-20T03:53:42.072Z,5.23
2022-10-20T03:56:16.701Z,5.23
2022-10-20T03:58:44.399Z,5.70
2022-10-20T04:01:15.353Z,5.43
2022-10-20T04:03:43.568Z,5.53
2022-10-20T04:06:11.468Z,5.77
2022-10-20T04:08:39.250Z,5.70
2022-10-20T04:11:07.566Z,5.97
2022-10-20T04:13:36.662Z,5.10
2022-10-20T04:16:04.561Z,5.00
2022-10-20T04:18:32.246Z,6.20
2022-10-20T04:20:59.906Z,5.67
2022-10-20T04:23:27.611Z,5.87
2022-10-20T04:25:55.311Z,6.10
2022-10-20T04:28:23.184Z,5.77
2022-10-20T04:30:52.352Z,5.83
2022-10-20T04:33:20.051Z,5.80
2022-10-20T04:35:47.815Z,5.87
2022-10-20T04:38:15.514Z,5.70
2022-10-20T04:40:43.241Z,6.20
2022-10-20T04:43:10.949Z,5.03
2022-10-20T04:45:38.674Z,6.07
2022-10-20T04:48:08.979Z,5.80
2022-10-20T04:50:36.666Z,5.47
2022-10-20T04:53:04.353Z,5.53
2022-10-20T04:55:32.220Z,6.33
2022-10-20T04:57:59.948Z,6.23
2022-10-20T05:00:27.773Z,6.03
2022-10-20T05:02:56.429Z,6.13
2022-10-20T05:05:25.822Z,5.70
2022-10-20T05:07:53.542Z,5.93
2022-10-20T05:10:21.610Z,5.97
2022-10-20T05:12:49.281Z,6.40
2022-10-20T05:15:17.109Z,6.40
2022-10-20T05:17:44.766Z,5.90
2022-10-20T05:20:12.461Z,7.03
2022-10-20T05:22:41.518Z,5.87
2022-10-20T05:25:35.041Z,6.47
2022-10-20T05:27:59.268Z,6.67
2022-10-20T05:30:27.030Z,7.00
2022-10-20T05:32:54.912Z,6.43
2022-10-20T05:35:22.607Z,6.33
2022-10-20T05:37:51.663Z,6.37
2022-10-20T05:40:19.319Z,6.10
2022-10-20T05:42:47.022Z,6.27
2022-10-20T05:45:14.883Z,6.80
2022-10-20T05:47:43.046Z,5.80
2022-10-20T05:50:12.037Z,6.53
2022-10-20T05:52:39.817Z,6.83
2022-10-20T05:55:10.704Z,6.10
2022-10-20T05:57:38.458Z,6.30
2022-10-20T06:00:07.349Z,6.03
2022-10-20T06:02:35.452Z,6.03
2022-10-20T06:05:03.287Z,5.90
2022-10-20T06:07:30.930Z,6.90
2022-10-20T06:09:58.596Z,6.47
2022-10-20T06:12:27.855Z,7.10
2022-10-20T06:14:55.540Z,6.80
2022-10-20T06:17:23.804Z,6.93
2022-10-20T06:19:52.517Z,7.10
2022-10-20T06:22:20.198Z,6.50
2022-10-20T06:24:48.138Z,7.27
2022-10-20T06:27:15.860Z,7.33
2022-10-20T06:29:44.941Z,7.03
2022-10-20T06:34:45.774Z,7.20
2022-10-20T06:37:14.077Z,7.97
2022-10-20T06:39:42.030Z,7.43
2022-10-20T06:42:12.062Z,7.20
2022-10-20T06:44:40.341Z,6.93
2022-10-20T06:47:10.396Z,6.60
2022-10-20T06:49:38.162Z,6.47
2022-10-20T06:52:06.172Z,7.07
2022-10-20T06:54:33.933Z,7.07
2022-10-20T06:57:01.694Z,7.23
2022-10-20T06:59:29.350Z,6.73
2022-10-20T07:01:57.027Z,7.17
2022-10-20T07:04:26.075Z,7.60
2022-10-20T07:06:53.741Z,7.20
2022-10-20T07:09:21.751Z,6.53
2022-10-20T07:11:52.219Z,6.90
2022-10-20T07:14:19.992Z,7.00
2022-10-20T07:16:47.762Z,6.63
2022-10-20T07:19:15.399Z,7.23
2022-10-20T07:21:45.948Z,6.00
2022-10-20T07:24:14.498Z,7.63
2022-10-20T07:26:42.976Z,6.77
2022-10-20T07:29:11.777Z,7.23
2022-10-20T07:31:41.762Z,6.90
2022-10-20T07:34:28.017Z,7.37
2022-10-20T07:36:58.545Z,6.70
2022-10-20T07:39:27.219Z,6.60
2022-10-20T07:41:55.098Z,6.43
2022-10-20T07:44:23.073Z,6.73
2022-10-20T07:46:51.478Z,7.27
2022-10-20T07:52:08.607Z,6.73
2022-10-20T07:54:36.342Z,6.53
2022-10-20T07:57:04.515Z,6.87
2022-10-20T07:59:32.272Z,6.80
2022-10-20T08:02:00.486Z,6.93
2022-10-20T08:04:28.874Z,6.23
2022-10-20T08:06:56.594Z,6.43
2022-10-20T08:09:25.755Z,7.00
2022-10-20T08:11:55.537Z,6.03
2022-10-20T08:14:24.394Z,5.93
2022-10-20T08:16:56.743Z,6.27
2022-10-20T08:19:39.265Z,6.57
2022-10-20T08:22:07.127Z,5.90
2022-10-20T08:24:36.397Z,6.73
2022-10-20T08:27:04.573Z,7.43
2022-10-20T08:29:32.334Z,6.87
2022-10-20T08:32:00.035Z,6.67
2022-10-20T08:34:27.762Z,6.27
2022-10-20T08:36:55.551Z,5.97
2022-10-20T08:39:23.305Z,6.73
2022-10-20T08:42:07.627Z,5.77
2022-10-20T08:44:37.229Z,6.20
2022-10-20T08:47:13.045Z,6.40
2022-10-20T08:49:40.846Z,6.47
2022-10-20T08:52:14.042Z,6.50
2022-10-20T08:54:41.820Z,6.03
2022-10-20T08:57:22.208Z,6.30
2022-10-20T08:59:52.856Z,6.13
2022-10-20T09:02:21.420Z,6.03
2022-10-20T09:04:51.903Z,6.63
2022-10-20T09:07:27.578Z,6.67
2022-10-20T09:10:05.779Z,5.90
2022-10-20T09:12:35.479Z,6.57
2022-10-20T09:15:04.160Z,6.40
2022-10-20T09:17:32.384Z,6.80
2022-10-20T09:20:01.099Z,6.27
2022-10-20T09:22:35.736Z,6.47
2022-10-20T09:25:04.600Z,6.63
2022-10-20T09:27:37.455Z,7.17
2022-10-20T09:30:16.237Z,7.07
2022-10-20T09:32:56.665Z,6.83
2022-10-20T09:35:31.252Z,5.87
2022-10-20T09:38:03.656Z,6.53
2022-10-20T09:40:32.271Z,6.33
2022-10-20T09:43:07.978Z,6.67
2022-10-20T09:45:36.358Z,6.00
2022-10-20T09:48:09.099Z,6.80
2022-10-20T09:50:40.326Z,6.60
2022-10-20T09:53:19.693Z,6.07
2022-10-20T09:55:49.560Z,6.07
2022-10-20T09:58:25.034Z,6.40
2022-10-20T10:01:02.901Z,6.33
2022-10-20T10:03:39.971Z,6.20
2022-10-20T10:06:23.359Z,6.57
2022-10-20T10:08:51.085Z,5.77
2022-10-20T10:11:21.167Z,5.97
2022-10-20T10:13:52.475Z,5.63
2022-10-20T10:16:24.115Z,6.57
2022-10-20T10:18:58.887Z,6.33
2022-10-20T10:21:27.024Z,6.23
2022-10-20T10:23:56.424Z,6.43
2022-10-20T10:26:36.045Z,6.63
2022-10-20T10:29:06.288Z,6.33
2022-10-20T10:31:34.606Z,5.53
2022-10-20T10:34:29.692Z,5.87
2022-10-20T10:36:57.362Z,6.57
2022-10-20T10:39:25.076Z,5.57
2022-10-20T10:42:05.326Z,6.37
2022-10-20T10:44:50.473Z,6.73
2022-10-20T10:47:40.204Z,6.00
2022-10-20T10:50:26.876Z,6.40
2022-10-20T10:53:08.353Z,5.70
2022-10-20T10:55:48.693Z,5.47
2022-10-20T10:58:31.119Z,5.87
2022-10-20T11:01:11.386Z,5.80
2022-10-20T11:03:59.718Z,6.40
2022-10-20T11:06:35.282Z,5.80
2022-10-20T11:09:24.347Z,6.07
2022-10-20T11:12:05.931Z,5.93
2022-10-20T11:14:46.532Z,5.50
2022-10-20T11:17:35.383Z,5.77
2022-10-20T11:20:19.259Z,6.10
2022-10-20T11:23:01.202Z,5.87
2022-10-20T11:25:34.212Z,6.27
2022-10-20T11:28:02.101Z,6.20
2022-10-20T11:30:31.503Z,6.30
2022-10-20T11:33:08.999Z,5.37
2022-10-20T11:35:43.415Z,5.73
2022-10-20T11:38:18.233Z,5.87
2022-10-20T11:40:50.921Z,5.70
2022-10-20T11:43:24.724Z,5.80
2022-10-20T11:45:56.165Z,5.90
2022-10-20T11:48:31.204Z,5.57
2022-10-20T11:51:19.965Z,5.43
2022-10-20T11:54:11.513Z,5.90
2022-10-20T11:56:57.669Z,5.67
2022-10-20T11:59:48.494Z,5.73
2022-10-20T12:02:36.960Z,5.70
2022-10-20T12:05:35.193Z,5.60
2022-10-20T12:08:35.266Z,6.00
2022-10-20T12:11:12.346Z,5.80
2022-10-20T12:13:51.401Z,5.53
2022-10-20T12:16:52.460Z,6.23
2022-10-20T12:19:22.416Z,5.90
2022-10-20T12:21:58.990Z,6.10
2022-10-20T12:24:37.759Z,5.90
2022-10-20T12:27:22.110Z,5.27
2022-10-20T12:30:05.737Z,5.53
2022-10-20T12:32:56.799Z,5.40
2022-10-20T12:35:59.937Z,5.87
2022-10-20T12:38:31.059Z,6.10
2022-10-20T12:41:01.130Z,5.97
2022-10-20T12:43:36.379Z,6.10
2022-10-20T12:46:21.345Z,5.60
2022-10-20T12:48:56.687Z,6.17
2022-10-20T12:51:36.178Z,5.67
2022-10-20T12:54:10.175Z,5.43
2022-10-20T12:56:40.596Z,6.30
2022-10-20T12:59:24.404Z,5.83
2022-10-20T13:02:37.824Z,6.20
2022-10-20T13:05:39.791Z,6.90
2022-10-20T13:08:32.503Z,6.37
2022-10-20T13:11:49.400Z,5.97
2022-10-20T13:14:34.372Z,6.20
2022-10-20T13:17:07.108Z,6.60
2022-10-20T13:19:39.807Z,6.03
2022-10-20T13:22:32.272Z,6.13
2022-10-20T13:25:03.919Z,6.30
2022-10-20T13:27:32.162Z,6.33
2022-10-20T13:30:01.242Z,6.67
2022-10-20T13:32:43.463Z,6.87
2022-10-20T13:35:28.623Z,6.30
2022-10-20T13:38:01.362Z,6.10
2022-10-20T13:40:41.777Z,6.30
2022-10-20T13:43:24.960Z,6.23
2022-10-20T13:46:15.131Z,6.03
2022-10-20T13:48:56.119Z,6.03
2022-10-20T13:51:28.598Z,5.53
2022-10-20T13:53:59.275Z,5.73
2022-10-20T13:56:35.176Z,5.43
2022-10-20T13:59:06.111Z,5.97
2022-10-20T14:01:37.359Z,5.47
2022-10-20T14:04:24.351Z,5.37
2022-10-20T14:06:52.135Z,5.87
2022-10-20T14:09:21.921Z,6.07
2022-10-20T14:11:53.476Z,5.33
2022-10-20T14:14:24.087Z,5.77
2022-10-20T14:16:57.151Z,6.13
2022-10-20T14:19:28.135Z,5.47
2022-10-20T14:21:58.258Z,5.00
2022-10-20T14:24:33.326Z,5.40
2022-10-20T14:27:03.369Z,4.73
2022-10-20T14:29:34.662Z,5.70
2022-10-20T14:32:03.877Z,4.80
2022-10-20T14:34:35.909Z,4.90
2022-10-20T14:37:04.263Z,4.50
2022-10-20T14:39:37.528Z,5.73
2022-10-20T14:42:17.280Z,4.87
2022-10-20T14:44:45.905Z,5.50
2022-10-20T14:47:16.607Z,5.03
2022-10-20T14:49:48.991Z,5.17
2022-10-20T14:52:22.293Z,4.50
2022-10-20T14:54:50.993Z,4.33
2022-10-20T14:57:45.910Z,4.40
2022-10-20T15:00:33.189Z,4.20
2022-10-20T15:03:06.856Z,4.20
2022-10-20T15:05:41.387Z,4.60
2022-10-20T15:08:12.480Z,3.80
2022-10-20T15:10:40.322Z,4.30
2022-10-20T15:13:26.533Z,4.57
2022-10-20T15:15:56.022Z,4.07
2022-10-20T15:18:25.510Z,4.10
2022-10-20T15:20:54.194Z,4.03
2022-10-20T15:23:23.349Z,3.77
2022-10-20T15:25:53.963Z,3.80
2022-10-20T15:28:26.118Z,3.40
2022-10-20T15:30:54.444Z,3.97
2022-10-20T15:33:22.336Z,3.53
2022-10-20T15:35:54.204Z,4.07
2022-10-20T15:38:22.434Z,3.13
2022-10-20T15:40:50.213Z,3.60
2022-10-20T15:43:19.406Z,3.63
2022-10-20T15:45:50.186Z,3.17
2022-10-20T15:48:18.721Z,3.33
2022-10-20T15:50:47.183Z,3.03
2022-10-20T15:53:17.754Z,3.50
2022-10-20T15:55:45.998Z,3.10
2022-10-20T15:58:13.997Z,2.77
2022-10-20T16:00:41.847Z,2.57
2022-10-20T16:03:16.197Z,2.93
2022-10-20T16:05:43.967Z,2.40
2022-10-20T16:08:11.969Z,2.63
2022-10-20T16:10:43.408Z,2.60
2022-10-20T16:13:11.813Z,2.40
2022-10-20T16:15:39.716Z,2.40
2022-10-20T16:18:09.776Z,2.20
2022-10-20T16:20:38.005Z,2.33
2022-10-20T16:23:05.680Z,2.10
2022-10-20T16:25:33.421Z,2.30
2022-10-20T16:28:02.729Z,1.90
2022-10-20T16:30:30.436Z,1.90
2022-10-20T16:32:58.109Z,2.33
2022-10-20T16:35:25.978Z,2.07
2022-10-20T16:37:53.814Z,2.23
2022-10-20T16:40:21.594Z,1.80
2022-10-20T16:42:49.324Z,1.77
2022-10-20T16:45:18.434Z,1.70
2022-10-20T16:47:46.175Z,1.60
2022-10-20T16:50:13.935Z,1.80
2022-10-20T16:52:41.585Z,1.87
2022-10-20T16:55:10.374Z,1.80
2022-10-20T16:57:39.886Z,1.93
2022-10-20T17:00:10.011Z,1.70
2022-10-20T17:02:42.925Z,1.90
2022-10-20T17:05:11.023Z,1.93
2022-10-20T17:07:39.133Z,1.83
2022-10-20T17:10:08.204Z,2.20
2022-10-20T17:12:35.934Z,1.90
2022-10-20T17:15:03.861Z,1.90
2022-10-20T17:17:31.603Z,1.90
2022-10-20T17:20:00.717Z,1.80
2022-10-20T17:22:28.507Z,1.80
2022-10-20T17:24:56.208Z,2.10
2022-10-20T17:27:24.010Z,1.93
2022-10-20T17:29:51.681Z,2.00
2022-10-20T17:32:19.366Z,1.80
2022-10-20T17:34:47.181Z,2.13
2022-10-20T17:37:16.319Z,1.83
2022-10-20T17:39:44.021Z,1.83
2022-10-20T17:42:11.857Z,2.20
2022-10-20T17:44:40.594Z,1.83
2022-10-20T17:47:08.633Z,2.40
2022-10-20T17:49:36.286Z,1.87
2022-10-20T17:52:04.133Z,1.83
2022-10-20T17:54:33.278Z,2.10
2022-10-20T17:57:01.069Z,2.00
2022-10-20T17:59:34.683Z,2.20
2022-10-20T18:02:10.970Z,2.43
2022-10-20T18:04:38.705Z,2.23
2022-10-20T18:07:06.497Z,2.00
2022-10-20T18:09:35.782Z,2.70
2022-10-20T18:12:03.620Z,2.60
2022-10-20T18:14:31.331Z,2.67
2022-10-20T18:16:59.060Z,2.30
2022-10-20T18:19:26.728Z,2.83
2022-10-20T18:21:54.416Z,2.67
2022-10-20T18:24:22.194Z,2.73
2022-10-20T18:26:51.363Z,2.53
2022-10-20T18:29:19.131Z,2.90
2022-10-20T18:31:47.877Z,3.00
2022-10-20T18:34:20.434Z,2.80
2022-10-20T18:36:48.553Z,2.90
2022-10-20T18:39:16.922Z,2.80
2022-10-20T18:41:46.386Z,2.80
2022-10-20T18:44:17.001Z,2.53
2022-10-20T18:46:46.292Z,2.77
2022-10-20T18:49:16.673Z,3.10
2022-10-20T18:51:47.433Z,2.73
2022-10-20T18:54:16.141Z,3.10
2022-10-20T18:56:44.116Z,2.93
2022-10-20T18:59:14.163Z,3.33
2022-10-20T19:01:43.374Z,3.00
2022-10-20T19:04:12.308Z,3.27
2022-10-20T19:06:42.161Z,3.40
2022-10-20T19:09:12.073Z,3.27
2022-10-20T19:11:41.263Z,3.13
2022-10-20T19:14:11.428Z,3.27
2022-10-20T19:16:40.415Z,3.23
2022-10-20T19:19:10.095Z,3.50
2022-10-20T19:21:38.290Z,3.50
2022-10-20T19:24:08.537Z,3.33
2022-10-20T19:26:37.709Z,3.53
2022-10-20T19:29:07.458Z,3.43
2022-10-20T19:31:38.697Z,3.60
2022-10-20T19:34:09.953Z,3.20
2022-10-20T19:36:38.287Z,3.67
2022-10-20T19:39:07.514Z,3.80
2022-10-20T19:41:35.560Z,3.50
2022-10-20T19:44:03.389Z,3.50
2022-10-20T19:46:31.278Z,4.00
2022-10-20T19:48:58.969Z,4.10
2022-10-20T19:51:28.117Z,3.93
2022-10-20T19:53:56.074Z,3.70
2022-10-20T19:56:24.183Z,3.87
2022-10-20T19:58:52.306Z,3.57
2022-10-20T20:01:20.040Z,3.70
2022-10-20T20:03:48.093Z,4.00
2022-10-20T20:06:18.103Z,3.80
2022-10-20T20:08:50.214Z,3.87
2022-10-20T20:11:23.787Z,3.70
2022-10-20T20:13:52.558Z,4.07
2022-10-20T20:16:21.051Z,3.63
2022-10-20T20:18:48.902Z,3.33
2022-10-20T20:21:17.283Z,4.27
2022-10-20T20:23:58.880Z,3.63
2022-10-20T20:26:29.252Z,4.13
2022-10-20T20:28:57.211Z,3.83
2022-10-20T20:31:25.470Z,3.27
2022-10-20T20:33:53.865Z,4.10
2022-10-20T20:36:21.815Z,4.07
2022-10-20T20:38:52.514Z,3.93
2022-10-20T20:41:21.789Z,3.97
2022-10-20T20:43:51.071Z,3.67
2022-10-20T20:46:20.670Z,4.17
2022-10-20T20:48:48.412Z,4.40
2022-10-20T20:51:16.218Z,4.37
2022-10-20T20:53:44.144Z,3.67
2022-10-20T20:56:13.765Z,3.93
2022-10-20T20:58:42.138Z,4.03
2022-10-20T21:01:14.576Z,4.50
2022-10-20T21:03:43.419Z,4.40
2022-10-20T21:06:12.878Z,4.43
2022-10-20T21:08:43.675Z,3.60
2022-10-20T21:11:13.918Z,4.47
2022-10-20T21:13:42.958Z,3.83
2022-10-20T21:16:15.100Z,4.20
2022-10-20T21:18:44.784Z,3.97
2022-10-20T21:21:14.077Z,3.80
2022-10-20T21:23:42.218Z,3.60
2022-10-20T21:26:11.312Z,3.57
2022-10-20T21:28:39.383Z,3.87
2022-10-20T21:31:08.271Z,3.40
2022-10-20T21:33:38.211Z,3.60
2022-10-20T21:36:08.725Z,3.33
2022-10-20T21:38:37.920Z,3.70
2022-10-20T21:41:06.821Z,3.87
2022-10-20T21:43:36.131Z,4.00
2022-10-20T21:46:14.891Z,3.53
2022-10-20T21:48:45.428Z,3.67
2022-10-20T21:51:14.882Z,4.00
2022-10-20T21:53:43.112Z,3.80
2022-10-20T21:56:11.381Z,3.87
2022-10-20T21:58:39.412Z,3.97
2022-10-20T22:01:11.404Z,3.73
2022-10-20T22:03:39.500Z,3.53
2022-10-20T22:06:09.749Z,4.00
2022-10-20T22:08:38.376Z,3.77
2022-10-20T22:11:07.424Z,3.50
2022-10-20T22:13:35.373Z,3.53
2022-10-20T22:16:03.442Z,3.73
2022-10-20T22:18:31.172Z,3.60
2022-10-20T22:21:03.379Z,4.17
2022-10-20T22:23:32.453Z,4.03
2022-10-20T22:26:00.162Z,3.70
2022-10-20T22:28:28.216Z,3.90
2022-10-20T22:30:56.103Z,3.97
2022-10-20T22:33:24.387Z,3.70
2022-10-20T22:35:52.093Z,3.63
2022-10-20T22:38:19.790Z,3.60
2022-10-20T22:40:48.934Z,4.13
2022-10-20T22:43:16.601Z,3.77
2022-10-20T22:45:44.428Z,3.30
2022-10-20T22:48:12.144Z,3.50
2022-10-20T22:50:39.868Z,4.03
2022-10-20T22:53:07.549Z,3.47
2022-10-20T22:55:35.259Z,3.83
2022-10-20T22:58:04.762Z,3.73
2022-10-20T23:00:32.671Z,3.83
2022-10-20T23:03:00.358Z,3.40
2022-10-20T23:05:28.207Z,3.53
2022-10-20T23:07:56.032Z,3.83
2022-10-20T23:10:23.816Z,3.50
2022-10-20T23:12:51.532Z,3.37
2022-10-20T23:15:20.710Z,3.77
2022-10-20T23:17:48.384Z,3.50
2022-10-20T23:20:16.393Z,3.63
2022-10-20T23:22:44.112Z,3.40
2022-10-20T23:25:11.813Z,3.60
2022-10-20T23:27:39.660Z,3.63
2022-10-20T23:30:08.862Z,3.50
2022-10-20T23:32:37.945Z,3.67
2022-10-20T23:35:06.445Z,3.50
2022-10-20T23:37:34.153Z,3.40
2022-10-20T23:40:01.802Z,3.37
2022-10-20T23:42:29.491Z,3.60
2022-10-20T23:44:57.156Z,4.17
2022-10-20T23:47:24.905Z,4.00
2022-10-20T23:49:53.949Z,3.73
2022-10-20T23:52:21.660Z,3.40
2022-10-20T23:54:49.492Z,3.40
2022-10-20T23:57:17.178Z,4.03
2022-10-20T23:59:44.855Z,3.70
